Time;durP1;ratioP1;P1;durP2;ratioP2;P2;SDS_P1;SDS_P2;PMS_P1;PMS_P2;Temp;Humidity;BMP_temperature;BMP_pressure;BME280_temperature;BME280_humidity;BME280_pressure;Samples;Min_cycle;Max_cycle;Signal;HPM_P1;HPM_P2
2024/04/20 00:00:39;;;;;;;2.30;1.90;;;;;;;6.37;100.00;97768.06;109449;1253;59950;-72
2024/04/20 00:03:25;;;;;;;2.90;2.30;;;;;;;6.37;100.00;97771.11;109453;1254;60195;-73
2024/04/20 00:05:51;;;;;;;3.00;2.30;;;;;;;6.36;100.00;97771.37;109508;1252;59786;-72
2024/04/20 00:08:18;;;;;;;2.00;1.70;;;;;;;6.34;100.00;97768.11;109521;1254;59817;-71
2024/04/20 00:10:44;;;;;;;2.20;2.00;;;;;;;6.33;100.00;97769.57;109517;1253;59914;-73
2024/04/20 00:13:11;;;;;;;1.80;1.60;;;;;;;6.33;100.00;97766.30;109499;1254;59829;-73
2024/04/20 00:15:41;;;;;;;2.40;1.50;;;;;;;6.32;100.00;97766.00;109524;1252;59930;-73
2024/04/20 00:18:07;;;;;;;3.50;1.80;;;;;;;6.31;100.00;97769.02;109528;1254;66848;-72
2024/04/20 00:20:34;;;;;;;2.10;1.90;;;;;;;6.31;100.00;97770.46;109120;1260;59792;-72
2024/04/20 00:23:00;;;;;;;2.40;2.00;;;;;;;6.30;100.00;97767.71;109475;1253;59829;-72
2024/04/20 00:25:26;;;;;;;3.80;2.30;;;;;;;6.29;100.00;97767.92;109500;1254;60581;-73
2024/04/20 00:27:53;;;;;;;3.40;3.10;;;;;;;6.28;100.00;97766.27;109242;1254;60141;-72
2024/04/20 00:30:19;;;;;;;3.40;3.00;;;;;;;6.26;100.00;97765.16;109534;1254;60152;-72
2024/04/20 00:32:45;;;;;;;3.90;3.00;;;;;;;6.25;100.00;97763.67;109479;1254;60178;-71
2024/04/20 00:35:12;;;;;;;2.70;2.20;;;;;;;6.24;100.00;97764.59;109493;1254;59805;-73
2024/04/20 00:37:39;;;;;;;4.10;2.70;;;;;;;6.23;100.00;97765.73;109461;1254;59724;-72
2024/04/20 00:40:06;;;;;;;3.10;2.80;;;;;;;6.22;100.00;97766.84;109192;1252;60065;-73
2024/04/20 00:42:32;;;;;;;3.20;2.80;;;;;;;6.23;100.00;97769.80;109521;1253;66532;-72
2024/04/20 00:44:59;;;;;;;4.10;3.30;;;;;;;6.23;100.00;97774.02;109497;1255;70653;-72
2024/04/20 00:47:26;;;;;;;2.70;2.50;;;;;;;6.23;100.00;97772.61;109495;1252;63675;-72
2024/04/20 00:49:52;;;;;;;3.90;2.70;;;;;;;6.23;100.00;97773.64;109491;1252;60170;-71
2024/04/20 00:52:19;;;;;;;3.60;2.80;;;;;;;6.24;100.00;97773.38;109469;1255;59804;-73
2024/04/20 00:54:45;;;;;;;2.20;1.40;;;;;;;6.22;100.00;97772.34;109521;1253;59826;-73
2024/04/20 00:57:12;;;;;;;2.10;1.90;;;;;;;6.17;100.00;97772.52;109500;1255;60106;-72
2024/04/20 00:59:38;;;;;;;2.30;1.80;;;;;;;6.13;100.00;97774.01;109507;1253;59847;-72
2024/04/20 01:02:05;;;;;;;3.40;2.00;;;;;;;6.09;100.00;97773.56;109462;1254;59862;-73
2024/04/20 01:04:31;;;;;;;2.30;1.80;;;;;;;6.06;100.00;97772.52;109529;1254;60079;-72
2024/04/20 01:06:57;;;;;;;3.30;2.70;;;;;;;6.05;100.00;97775.45;109537;1253;59915;-72
2024/04/20 01:09:24;;;;;;;2.50;2.10;;;;;;;6.02;100.00;97775.63;109478;1254;60240;-72
2024/04/20 01:11:50;;;;;;;3.50;2.00;;;;;;;6.00;100.00;97779.83;109476;1253;59861;-72
2024/04/20 01:14:17;;;;;;;1.60;1.30;;;;;;;5.98;100.00;97780.14;109510;1254;59763;-72
2024/04/20 01:16:43;;;;;;;2.00;1.70;;;;;;;5.97;100.00;97781.10;109506;1254;59816;-72
2024/04/20 01:19:17;;;;;;;2.80;2.40;;;;;;;5.96;100.00;97783.10;109487;1254;60292;-72
2024/04/20 01:21:43;;;;;;;3.10;2.20;;;;;;;5.95;100.00;97783.16;109576;1252;59820;-72
2024/04/20 01:24:13;;;;;;;2.40;2.20;;;;;;;5.93;100.00;97781.86;109505;1253;59935;-73
2024/04/20 01:26:39;;;;;;;1.20;1.10;;;;;;;5.92;100.00;97781.55;109510;1253;59788;-72
2024/04/20 01:29:05;;;;;;;1.10;1.00;;;;;;;5.92;100.00;97782.10;109527;1254;59862;-72
2024/04/20 01:31:32;;;;;;;1.50;0.90;;;;;;;5.90;100.00;97781.52;109521;1255;59842;-72
2024/04/20 01:33:58;;;;;;;1.50;1.10;;;;;;;5.88;100.00;97781.42;109530;1254;59838;-73
2024/04/20 01:36:25;;;;;;;2.20;1.70;;;;;;;5.87;100.00;97778.02;109161;1257;59996;-73
2024/04/20 01:38:54;;;;;;;1.80;1.60;;;;;;;5.86;100.00;97781.13;109474;1251;59804;-73
2024/04/20 01:41:20;;;;;;;1.70;1.30;;;;;;;5.86;100.00;97782.49;109497;1254;59883;-73
2024/04/20 01:43:47;;;;;;;1.50;1.20;;;;;;;5.87;100.00;97780.86;109179;1252;59910;-73
2024/04/20 01:46:13;;;;;;;3.40;1.60;;;;;;;5.87;100.00;97779.44;109514;1254;59748;-73
2024/04/20 01:48:39;;;;;;;2.50;2.30;;;;;;;5.88;100.00;97781.14;109497;1253;59841;-72
2024/04/20 01:51:05;;;;;;;2.40;1.70;;;;;;;5.88;100.00;97783.42;109517;1253;59821;-72
2024/04/20 01:53:32;;;;;;;2.00;1.20;;;;;;;5.88;100.00;97775.99;109543;1253;59830;-72
2024/04/20 01:55:58;;;;;;;3.10;1.80;;;;;;;5.88;100.00;97780.55;109492;1252;59798;-73
2024/04/20 01:58:25;;;;;;;1.50;1.40;;;;;;;5.88;100.00;97780.94;109508;1254;59804;-73
2024/04/20 02:00:52;;;;;;;1.50;1.30;;;;;;;5.88;100.00;97779.02;109180;1253;60665;-72
2024/04/20 02:03:18;;;;;;;1.50;1.40;;;;;;;5.89;100.00;97777.16;109517;1253;59777;-72
2024/04/20 02:05:45;;;;;;;1.10;1.00;;;;;;;5.91;100.00;97781.64;109487;1254;59863;-72
2024/04/20 02:08:11;;;;;;;1.80;1.60;;;;;;;5.91;100.00;97782.34;109545;1253;59822;-71
2024/04/20 02:10:37;;;;;;;1.40;1.30;;;;;;;5.91;100.00;97782.67;109476;1254;60008;-73
2024/04/20 02:13:04;;;;;;;1.50;1.20;;;;;;;5.92;100.00;97788.27;109477;1253;60128;-72
2024/04/20 02:15:30;;;;;;;1.60;1.30;;;;;;;5.92;100.00;97787.34;109480;1253;59988;-72
2024/04/20 02:17:56;;;;;;;1.30;1.20;;;;;;;5.94;100.00;97787.80;109543;1252;60111;-72
2024/04/20 02:20:23;;;;;;;3.10;1.50;;;;;;;5.96;100.00;97792.61;109458;1254;59836;-73
2024/04/20 02:22:50;;;;;;;2.80;1.50;;;;;;;5.98;100.00;97795.49;109530;1253;60799;-72
2024/04/20 02:25:17;;;;;;;2.40;2.20;;;;;;;5.99;100.00;97797.36;109479;1254;59938;-72
2024/04/20 02:27:43;;;;;;;2.40;2.20;;;;;;;6.01;100.00;97795.98;109458;1254;59849;-73
2024/04/20 02:30:09;;;;;;;3.40;2.80;;;;;;;6.04;100.00;97797.71;109506;1254;60010;-72
2024/04/20 02:32:36;;;;;;;3.30;3.00;;;;;;;6.06;100.00;97794.05;109174;1253;59877;-72
2024/04/20 02:35:02;;;;;;;3.70;3.10;;;;;;;6.08;100.00;97795.15;109500;1254;59854;-72
2024/04/20 02:37:30;;;;;;;4.00;3.60;;;;;;;6.05;100.00;97791.64;109526;1252;60099;-72
2024/04/20 02:39:57;;;;;;;4.00;3.50;;;;;;;6.06;100.00;97796.34;109515;1253;59782;-72
2024/04/20 02:42:23;;;;;;;4.20;3.80;;;;;;;6.08;100.00;97794.12;109539;1253;59809;-72
2024/04/20 02:44:50;;;;;;;4.00;3.40;;;;;;;6.09;100.00;97792.59;109507;1254;59942;-72
2024/04/20 02:47:16;;;;;;;4.90;3.70;;;;;;;6.10;100.00;97787.25;109522;1253;59745;-71
2024/04/20 02:49:42;;;;;;;3.60;3.10;;;;;;;6.11;100.00;97792.27;109500;1253;59768;-71
2024/04/20 02:52:09;;;;;;;4.00;3.50;;;;;;;6.12;100.00;97785.71;109478;1253;60050;-72
2024/04/20 02:54:35;;;;;;;4.70;3.60;;;;;;;6.13;100.00;97785.78;109502;1253;59852;-73
2024/04/20 02:57:01;;;;;;;5.70;4.00;;;;;;;6.14;100.00;97783.08;109514;1255;59747;-72
2024/04/20 02:59:28;;;;;;;5.70;3.90;;;;;;;6.15;100.00;97783.91;109546;1254;59787;-72
2024/04/20 03:01:54;;;;;;;6.50;4.50;;;;;;;6.15;100.00;97785.98;109472;1253;60076;-73
2024/04/20 03:04:20;;;;;;;5.70;5.20;;;;;;;6.15;100.00;97785.09;109557;1253;59801;-72
2024/04/20 03:06:46;;;;;;;6.50;5.00;;;;;;;6.14;100.00;97786.05;109505;1254;59916;-72
2024/04/20 03:09:14;;;;;;;5.80;5.30;;;;;;;6.13;100.00;97785.25;109488;1251;59838;-71
2024/04/20 03:11:40;;;;;;;7.00;5.70;;;;;;;6.14;100.00;97785.04;109519;1252;59731;-72
2024/04/20 03:14:06;;;;;;;7.10;6.40;;;;;;;6.13;100.00;97785.23;109486;1253;60702;-72
2024/04/20 03:16:33;;;;;;;6.80;6.00;;;;;;;6.15;100.00;97788.85;109534;1254;59842;-71
2024/04/20 03:18:59;;;;;;;8.70;6.40;;;;;;;6.14;100.00;97790.62;109563;1253;59809;-72
2024/04/20 03:21:25;;;;;;;7.60;6.90;;;;;;;6.14;100.00;97787.52;109494;1254;59797;-73
2024/04/20 03:23:51;;;;;;;7.30;6.50;;;;;;;6.13;100.00;97788.97;109482;1251;59908;-73
2024/04/20 03:26:18;;;;;;;7.00;6.30;;;;;;;6.13;100.00;97791.09;109499;1252;59894;-73
2024/04/20 03:28:44;;;;;;;8.30;7.40;;;;;;;6.14;100.00;97788.73;109523;1253;60131;-73
2024/04/20 03:31:10;;;;;;;8.50;7.50;;;;;;;6.14;100.00;97793.17;109524;1254;59892;-73
2024/04/20 03:33:37;;;;;;;8.40;7.40;;;;;;;6.14;100.00;97798.46;109512;1251;60249;-73
2024/04/20 03:36:04;;;;;;;7.50;6.70;;;;;;;6.12;100.00;97802.46;109515;1253;60879;-72
2024/04/20 03:38:32;;;;;;;7.90;7.10;;;;;;;6.11;100.00;97805.55;109504;1253;59864;-72
2024/04/20 03:41:03;;;;;;;9.10;7.70;;;;;;;6.08;100.00;97805.88;109165;1253;59874;-72
2024/04/20 03:43:30;;;;;;;10.10;7.30;;;;;;;6.08;100.00;97809.39;109509;1254;59850;-72
2024/04/20 03:45:56;;;;;;;10.50;8.10;;;;;;;6.07;100.00;97812.64;109477;1252;60052;-73
2024/04/20 03:48:24;;;;;;;10.70;9.60;;;;;;;6.06;100.00;97815.88;109543;1253;59813;-73
2024/04/20 03:50:52;;;;;;;9.70;8.70;;;;;;;6.06;100.00;97815.39;109514;1253;62884;-73
2024/04/20 03:53:20;;;;;;;5.70;5.10;;;;;;;6.03;100.00;97817.15;109563;1253;59766;-73
2024/04/20 03:55:46;;;;;;;5.40;4.80;;;;;;;5.99;100.00;97823.11;109519;1253;60020;-73
2024/04/20 03:58:13;;;;;;;6.10;4.60;;;;;;;5.97;100.00;97824.25;109136;1251;60281;-72
2024/04/20 04:00:39;;;;;;;3.70;3.30;;;;;;;5.97;100.00;97820.94;109501;1251;59801;-73
2024/04/20 04:03:08;;;;;;;6.00;3.90;;;;;;;5.93;100.00;97821.30;109136;1254;60102;-72
2024/04/20 04:05:35;;;;;;;4.60;3.30;;;;;;;5.91;100.00;97817.89;109551;1253;59741;-73
2024/04/20 04:08:01;;;;;;;4.90;3.30;;;;;;;5.91;100.00;97821.24;109528;1251;59840;-73
2024/04/20 04:10:28;;;;;;;3.90;3.40;;;;;;;5.93;100.00;97823.11;109510;1251;60073;-73
2024/04/20 04:12:58;;;;;;;4.40;3.40;;;;;;;5.94;100.00;97823.94;109540;1253;59861;-72
2024/04/20 04:15:24;;;;;;;3.90;3.50;;;;;;;5.98;100.00;97827.02;109531;1253;64071;-73
2024/04/20 04:17:51;;;;;;;4.40;3.30;;;;;;;6.03;100.00;97825.27;109426;1253;59802;-73
2024/04/20 04:20:17;;;;;;;4.70;3.50;;;;;;;6.09;100.00;97828.20;109415;1253;59880;-73
2024/04/20 04:22:43;;;;;;;4.00;3.60;;;;;;;6.17;100.00;97828.40;109391;1254;59871;-72
2024/04/20 04:25:09;;;;;;;4.90;3.20;;;;;;;6.23;100.00;97832.73;109421;1253;60095;-71
2024/04/20 04:27:36;;;;;;;4.80;3.60;;;;;;;6.26;100.00;97835.04;109414;1253;59843;-73
2024/04/20 04:30:02;;;;;;;3.20;2.90;;;;;;;6.30;100.00;97837.41;109394;1254;60230;-72
2024/04/20 04:32:29;;;;;;;4.10;2.90;;;;;;;6.31;100.00;97838.36;109432;1253;59836;-73
2024/04/20 04:34:56;;;;;;;3.30;2.80;;;;;;;6.33;100.00;97838.42;109452;1254;59796;-73
2024/04/20 04:37:24;;;;;;;4.00;2.90;;;;;;;6.35;100.00;97839.48;109418;1253;60244;-73
2024/04/20 04:39:50;;;;;;;7.00;3.70;;;;;;;6.38;100.00;97840.36;109427;1253;64110;-71
2024/04/20 04:42:16;;;;;;;4.10;3.10;;;;;;;6.44;100.00;97842.81;109395;1253;59783;-71
2024/04/20 04:44:43;;;;;;;4.50;3.60;;;;;;;6.52;100.00;97840.23;109386;1252;59676;-72
2024/04/20 04:47:09;;;;;;;3.50;3.20;;;;;;;6.64;100.00;97840.88;109427;1252;59789;-72
2024/04/20 04:49:36;;;;;;;3.30;2.80;;;;;;;6.75;100.00;97839.38;109161;1253;59756;-73
2024/04/20 04:52:02;;;;;;;8.20;5.20;;;;;;;6.86;100.00;97841.46;109406;1253;59788;-72
2024/04/20 04:54:29;;;;;;;6.30;5.60;;;;;;;6.95;100.00;97845.03;109097;1253;60148;-73
2024/04/20 04:56:55;;;;;;;5.30;4.20;;;;;;;7.04;100.00;97847.05;109472;1253;59778;-72
2024/04/20 04:59:22;;;;;;;5.30;4.40;;;;;;;7.11;100.00;97847.85;109435;1253;59842;-73
2024/04/20 05:01:51;;;;;;;4.30;3.20;;;;;;;7.15;100.00;97851.79;109412;1254;60262;-73
2024/04/20 05:04:18;;;;;;;4.00;2.70;;;;;;;7.23;100.00;97851.34;109380;1253;62869;-73
2024/04/20 05:06:46;;;;;;;3.30;2.10;;;;;;;7.33;100.00;97857.16;109416;1253;59899;-73
2024/04/20 05:09:13;;;;;;;3.20;2.60;;;;;;;7.41;100.00;97857.99;109405;1253;59909;-73
2024/04/20 05:11:39;;;;;;;2.80;2.50;;;;;;;7.47;100.00;97859.89;109429;1253;66837;-72
2024/04/20 05:14:05;;;;;;;2.60;2.30;;;;;;;7.52;100.00;97863.42;109410;1253;60064;-71
2024/04/20 05:16:31;;;;;;;5.00;3.20;;;;;;;7.57;100.00;97869.44;109120;1253;60076;-71
2024/04/20 05:18:58;;;;;;;4.40;4.00;;;;;;;7.59;100.00;97871.03;109415;1254;59865;-73
2024/04/20 05:21:24;;;;;;;6.50;4.20;;;;;;;7.59;100.00;97872.61;109414;1253;59855;-72
2024/04/20 05:23:50;;;;;;;4.70;3.30;;;;;;;7.59;100.00;97871.95;109447;1253;59936;-73
2024/04/20 05:26:17;;;;;;;4.40;3.50;;;;;;;7.59;100.00;97872.08;109487;1253;59794;-72
2024/04/20 05:28:43;;;;;;;4.60;4.00;;;;;;;7.65;100.00;97874.32;109372;1253;59953;-72
2024/04/20 05:31:09;;;;;;;3.40;3.10;;;;;;;7.73;100.00;97873.88;109386;1253;59770;-74
2024/04/20 05:33:36;;;;;;;3.50;2.60;;;;;;;7.80;100.00;97876.76;109488;1253;60113;-72
2024/04/20 05:36:05;;;;;;;3.70;2.10;;;;;;;7.88;100.00;97879.70;109482;1253;59887;-72
2024/04/20 05:38:32;;;;;;;3.20;2.70;;;;;;;7.96;100.00;97884.38;109451;1253;60153;-72
2024/04/20 05:41:03;;;;;;;3.00;2.70;;;;;;;8.01;100.00;97885.70;109381;1252;62822;-73
2024/04/20 05:43:29;;;;;;;4.20;3.00;;;;;;;8.04;100.00;97885.95;109391;1253;59766;-71
2024/04/20 05:45:55;;;;;;;2.60;1.90;;;;;;;8.08;100.00;97887.22;109393;1253;59684;-72
2024/04/20 05:48:22;;;;;;;2.40;1.60;;;;;;;8.08;100.00;97884.95;109430;1253;59894;-73
2024/04/20 05:50:48;;;;;;;3.50;2.00;;;;;;;8.06;100.00;97888.80;109407;1252;59836;-72
2024/04/20 05:53:14;;;;;;;1.30;1.20;;;;;;;8.04;100.00;97890.50;109436;1253;60718;-72
2024/04/20 05:55:41;;;;;;;2.50;1.90;;;;;;;8.01;100.00;97891.11;109440;1253;59863;-73
2024/04/20 05:58:08;;;;;;;3.20;2.80;;;;;;;7.98;100.00;97894.35;109121;1253;59779;-73
2024/04/20 06:00:35;;;;;;;4.10;3.70;;;;;;;7.94;100.00;97898.73;109441;1253;59880;-73
2024/04/20 06:03:01;;;;;;;4.90;4.50;;;;;;;7.83;100.00;97904.11;109420;1253;59919;-73
2024/04/20 06:05:28;;;;;;;5.50;4.90;;;;;;;7.77;100.00;97907.54;109385;1253;65119;-72
2024/04/20 06:07:54;;;;;;;4.20;3.80;;;;;;;7.78;100.00;97906.39;109376;1253;59756;-73
2024/04/20 06:10:21;;;;;;;3.30;3.10;;;;;;;7.86;100.00;97908.31;109449;1253;59740;-72
2024/04/20 06:12:47;;;;;;;3.90;3.50;;;;;;;7.94;100.00;97908.81;109423;1253;66538;-74
2024/04/20 06:15:14;;;;;;;3.30;3.00;;;;;;;7.99;100.00;97910.54;109418;1253;59774;-74
2024/04/20 06:17:40;;;;;;;3.60;3.30;;;;;;;8.02;100.00;97913.85;109411;1253;59981;-73
2024/04/20 06:20:07;;;;;;;3.10;2.70;;;;;;;8.06;100.00;97918.11;109428;1253;59822;-72
2024/04/20 06:22:33;;;;;;;3.20;3.00;;;;;;;8.15;100.00;97919.11;109398;1253;59740;-74
2024/04/20 06:25:01;;;;;;;3.20;3.00;;;;;;;8.18;100.00;97921.56;109372;1253;59947;-72
2024/04/20 06:27:28;;;;;;;3.60;3.30;;;;;;;8.16;100.00;97925.95;109418;1253;59844;-72
2024/04/20 06:29:54;;;;;;;3.20;2.90;;;;;;;8.14;100.00;97926.55;109415;1253;59864;-72
2024/04/20 06:32:21;;;;;;;4.20;3.50;;;;;;;8.15;100.00;97930.58;109386;1253;59765;-72
2024/04/20 06:34:47;;;;;;;4.00;3.70;;;;;;;8.12;100.00;97930.96;109439;1254;59876;-73
2024/04/20 06:37:14;;;;;;;3.90;3.60;;;;;;;8.08;100.00;97936.59;109414;1252;59798;-73
2024/04/20 06:39:40;;;;;;;4.70;4.30;;;;;;;8.04;100.00;97936.36;109442;1253;60224;-72
2024/04/20 06:42:07;;;;;;;4.70;4.30;;;;;;;8.00;100.00;97938.58;109403;1253;60660;-73
2024/04/20 06:44:33;;;;;;;6.10;5.50;;;;;;;7.96;100.00;97940.98;109418;1253;59830;-73
2024/04/20 06:46:59;;;;;;;4.90;4.50;;;;;;;7.96;100.00;97942.77;109465;1253;59886;-73
2024/04/20 06:49:25;;;;;;;4.60;4.20;;;;;;;8.01;100.00;97947.94;109409;1253;59849;-73
2024/04/20 06:51:52;;;;;;;5.00;4.70;;;;;;;8.08;100.00;97947.89;109442;1253;59864;-73
2024/04/20 06:54:18;;;;;;;5.80;5.30;;;;;;;8.17;100.00;97948.45;109385;1254;59832;-72
2024/04/20 06:56:45;;;;;;;15.20;8.80;;;;;;;8.26;100.00;97949.94;109399;1253;59760;-73
2024/04/20 06:59:11;;;;;;;10.80;7.10;;;;;;;8.31;100.00;97952.36;109137;1253;60204;-73
2024/04/20 07:01:37;;;;;;;7.10;5.90;;;;;;;8.42;100.00;97952.84;109090;1253;60046;-72
2024/04/20 07:04:04;;;;;;;3.90;3.50;;;;;;;8.46;100.00;97952.86;109469;1253;59831;-71
2024/04/20 07:06:31;;;;;;;3.40;3.00;;;;;;;8.45;100.00;97953.12;109381;1253;59899;-72
2024/04/20 07:08:59;;;;;;;3.60;3.10;;;;;;;8.50;100.00;97953.29;109453;1253;59753;-73
2024/04/20 07:11:26;;;;;;;3.30;3.00;;;;;;;8.63;100.00;97957.09;109420;1253;59717;-74
2024/04/20 07:13:55;;;;;;;4.10;3.70;;;;;;;8.85;100.00;97957.25;109413;1253;59764;-73
2024/04/20 07:16:22;;;;;;;4.60;4.20;;;;;;;9.01;100.00;97957.98;109466;1252;60526;-73
2024/04/20 07:18:48;;;;;;;5.00;4.60;;;;;;;9.04;100.00;97962.14;109367;1253;72705;-72
2024/04/20 07:21:15;;;;;;;4.60;4.20;;;;;;;9.01;100.00;97965.58;109383;1253;59840;-74
2024/04/20 07:23:41;;;;;;;4.10;3.80;;;;;;;9.05;100.00;97966.15;109431;1253;60176;-75
2024/04/20 07:26:07;;;;;;;3.60;3.30;;;;;;;9.15;100.00;97964.30;109386;1252;59768;-71
2024/04/20 07:28:34;;;;;;;3.60;3.30;;;;;;;9.27;100.00;97968.89;109414;1253;60068;-73
2024/04/20 07:31:01;;;;;;;3.60;3.30;;;;;;;9.37;100.00;97967.36;109427;1253;59792;-73
2024/04/20 07:33:28;;;;;;;4.50;3.70;;;;;;;9.53;100.00;97968.42;109416;1252;59851;-73
2024/04/20 07:35:54;;;;;;;4.40;3.20;;;;;;;9.73;100.00;97968.25;109407;1253;59792;-73
2024/04/20 07:38:20;;;;;;;3.60;3.20;;;;;;;9.76;100.00;97973.31;109383;1253;59818;-73
2024/04/20 07:40:47;;;;;;;3.40;3.00;;;;;;;9.77;100.00;97976.06;109439;1253;59813;-73
2024/04/20 07:43:15;;;;;;;3.30;3.00;;;;;;;9.88;100.00;97978.20;109378;1253;59836;-72
2024/04/20 07:45:41;;;;;;;3.60;3.10;;;;;;;9.92;100.00;97981.27;109358;1253;59852;-73
2024/04/20 07:48:07;;;;;;;3.20;2.90;;;;;;;9.84;100.00;97979.23;109407;1252;59835;-73
2024/04/20 07:50:34;;;;;;;2.90;2.50;;;;;;;9.83;100.00;97980.91;109403;1253;59859;-72
2024/04/20 07:53:00;;;;;;;3.00;2.30;;;;;;;9.85;100.00;97984.11;109405;1252;59840;-73
2024/04/20 07:55:26;;;;;;;2.80;2.20;;;;;;;9.86;100.00;97981.92;109406;1252;59811;-73
2024/04/20 07:57:53;;;;;;;2.10;2.00;;;;;;;9.79;100.00;97986.21;109389;1253;59825;-73
2024/04/20 08:00:19;;;;;;;3.50;2.50;;;;;;;9.81;100.00;97989.80;109404;1253;59750;-73
2024/04/20 08:02:46;;;;;;;2.70;2.40;;;;;;;9.90;100.00;97991.70;109366;1255;59871;-72
2024/04/20 08:05:13;;;;;;;2.70;2.50;;;;;;;9.98;100.00;97995.52;109403;1252;59792;-74
2024/04/20 08:07:39;;;;;;;3.00;2.70;;;;;;;9.86;100.00;97996.96;109395;1252;59974;-73
2024/04/20 08:10:07;;;;;;;3.30;2.70;;;;;;;9.70;100.00;97999.50;109443;1252;59824;-72
2024/04/20 08:12:33;;;;;;;2.60;2.40;;;;;;;9.62;100.00;98001.00;109226;1254;59837;-73
2024/04/20 08:15:02;;;;;;;3.70;2.80;;;;;;;9.56;100.00;98003.86;109410;1252;59782;-72
2024/04/20 08:17:28;;;;;;;4.30;3.40;;;;;;;9.40;100.00;98006.98;109410;1252;60252;-73
2024/04/20 08:19:54;;;;;;;3.10;2.80;;;;;;;9.29;100.00;98010.39;109389;1252;59753;-73
2024/04/20 08:22:21;;;;;;;3.30;2.90;;;;;;;9.25;100.00;98017.56;109445;1252;59965;-74
2024/04/20 08:24:47;;;;;;;2.50;2.30;;;;;;;9.28;100.00;98018.41;109517;1253;59765;-73
2024/04/20 08:27:15;;;;;;;2.80;2.30;;;;;;;9.33;100.00;98021.76;109483;1252;59944;-72
2024/04/20 08:29:41;;;;;;;2.80;2.10;;;;;;;9.39;100.00;98023.73;109504;1252;60162;-72
2024/04/20 08:32:08;;;;;;;2.30;2.10;;;;;;;9.53;100.00;98025.36;109476;1254;64595;-72
2024/04/20 08:34:34;;;;;;;2.40;2.20;;;;;;;9.68;100.00;98028.94;109448;1252;59787;-72
2024/04/20 08:37:00;;;;;;;2.40;2.20;;;;;;;9.83;100.00;98028.25;109544;1252;59662;-72
2024/04/20 08:39:27;;;;;;;2.10;2.00;;;;;;;9.96;100.00;98031.11;109535;1251;60068;-73
2024/04/20 08:42:03;;;;;;;2.50;2.30;;;;;;;10.03;100.00;98036.08;109490;1252;59792;-72
2024/04/20 08:44:30;;;;;;;3.50;2.60;;;;;;;10.02;100.00;98036.53;109530;1252;62714;-72
2024/04/20 08:46:56;;;;;;;2.30;2.10;;;;;;;9.90;100.00;98040.89;109469;1253;59749;-73
2024/04/20 08:49:25;;;;;;;2.40;2.20;;;;;;;9.76;100.00;98046.38;109326;1254;59839;-72
2024/04/20 08:51:53;;;;;;;2.20;2.00;;;;;;;9.61;100.00;98054.11;109513;1251;65522;-72
2024/04/20 08:54:21;;;;;;;1.30;1.20;;;;;;;9.30;100.00;98059.40;109159;1253;60200;-72
2024/04/20 08:56:48;;;;;;;1.40;1.10;;;;;;;8.91;100.00;98062.67;109511;1252;63748;-72
2024/04/20 08:59:15;;;;;;;1.40;1.20;;;;;;;8.68;100.00;98063.88;109262;1252;59808;-72
2024/04/20 09:01:41;;;;;;;2.00;1.30;;;;;;;8.54;100.00;98067.05;109498;1253;59814;-73
2024/04/20 09:04:07;;;;;;;1.80;1.40;;;;;;;8.47;100.00;98074.33;109487;1253;59764;-73
2024/04/20 09:06:35;;;;;;;2.00;1.80;;;;;;;8.52;100.00;98078.66;109162;1253;59781;-73
2024/04/20 09:09:03;;;;;;;2.20;1.70;;;;;;;8.49;100.00;98083.52;109508;1252;63746;-74
2024/04/20 09:11:33;;;;;;;2.30;1.60;;;;;;;8.44;100.00;98089.00;109112;1251;59922;-72
2024/04/20 09:14:00;;;;;;;2.40;2.10;;;;;;;8.45;100.00;98089.11;109556;1252;59768;-71
2024/04/20 09:16:29;;;;;;;3.30;2.10;;;;;;;8.53;100.00;98091.17;109524;1252;66547;-72
2024/04/20 09:18:55;;;;;;;3.10;2.20;;;;;;;8.55;100.00;98095.45;109545;1253;60316;-73
2024/04/20 09:21:24;;;;;;;2.00;1.50;;;;;;;8.59;100.00;98098.56;109501;1253;59928;-73
2024/04/20 09:23:50;;;;;;;1.60;1.50;;;;;;;8.59;100.00;98101.56;109471;1252;59893;-73
2024/04/20 09:26:22;;;;;;;1.50;0.90;;;;;;;8.64;100.00;98107.39;109499;1253;60242;-73
2024/04/20 09:28:58;;;;;;;1.00;0.90;;;;;;;8.70;100.00;98103.73;109393;1253;65602;-71
2024/04/20 09:31:26;;;;;;;1.20;1.10;;;;;;;8.88;100.00;98102.39;109522;1253;60360;-73
2024/04/20 09:33:56;;;;;;;1.00;0.80;;;;;;;9.11;100.00;98108.85;109467;1252;63757;-73
2024/04/20 09:36:22;;;;;;;1.30;1.00;;;;;;;9.22;100.00;98114.60;109490;1252;59980;-72
2024/04/20 09:38:49;;;;;;;1.20;1.00;;;;;;;9.27;100.00;98111.36;109525;1252;59846;-73
2024/04/20 09:41:16;;;;;;;0.80;0.80;;;;;;;9.39;100.00;98116.64;109501;1252;59940;-73
2024/04/20 09:43:43;;;;;;;1.90;1.50;;;;;;;9.55;100.00;98118.80;109549;1252;60065;-72
2024/04/20 09:46:10;;;;;;;3.00;1.50;;;;;;;9.73;100.00;98117.44;109520;1253;64122;-72
2024/04/20 09:48:38;;;;;;;1.40;1.30;;;;;;;9.93;100.00;98116.89;109502;1253;59798;-72
2024/04/20 09:51:21;;;;;;;3.20;1.80;;;;;;;10.14;100.00;98117.92;109542;1252;59719;-72
2024/04/20 09:53:53;;;;;;;1.90;1.80;;;;;;;10.44;100.00;98116.80;109525;1253;66604;-72
2024/04/20 09:56:21;;;;;;;1.30;0.90;;;;;;;10.91;100.00;98116.02;109516;1252;60041;-74
2024/04/20 09:58:47;;;;;;;1.70;0.80;;;;;;;11.32;100.00;98114.42;109254;1253;63286;-73
2024/04/20 10:01:14;;;;;;;0.80;0.80;;;;;;;11.67;100.00;98112.86;109457;1253;59767;-73
2024/04/20 10:03:43;;;;;;;1.70;1.60;;;;;;;12.00;100.00;98113.19;109527;1253;59802;-73
2024/04/20 10:06:13;;;;;;;1.00;1.00;;;;;;;12.06;100.00;98113.77;109482;1251;66829;-72
2024/04/20 10:08:41;;;;;;;1.30;1.20;;;;;;;11.90;100.00;98118.16;109516;1253;59867;-72
2024/04/20 10:11:09;;;;;;;1.60;1.20;;;;;;;11.59;100.00;98121.69;109486;1253;62749;-73
2024/04/20 10:13:38;;;;;;;1.10;1.00;;;;;;;11.42;100.00;98122.59;109501;1253;59801;-72
2024/04/20 10:16:05;;;;;;;1.50;1.40;;;;;;;11.54;99.80;98122.49;109498;1252;59697;-73
2024/04/20 10:18:32;;;;;;;1.20;1.10;;;;;;;11.79;97.22;98121.23;109566;1253;66810;-73
2024/04/20 10:20:58;;;;;;;2.20;1.30;;;;;;;12.10;97.84;98118.21;109489;1253;60204;-73
2024/04/20 10:23:27;;;;;;;1.30;1.00;;;;;;;12.46;97.08;98115.08;109505;1252;63898;-74
2024/04/20 10:25:54;;;;;;;1.00;1.00;;;;;;;12.66;93.96;98113.25;109484;1252;59904;-74
2024/04/20 10:28:25;;;;;;;1.90;1.10;;;;;;;12.57;92.38;98114.77;109525;1252;59809;-74
2024/04/20 10:30:56;;;;;;;1.70;1.30;;;;;;;12.26;92.19;98123.80;109502;1252;66850;-73
2024/04/20 10:33:30;;;;;;;1.60;1.30;;;;;;;12.10;93.84;98131.22;109541;1252;59784;-74
2024/04/20 10:35:58;;;;;;;1.20;1.10;;;;;;;12.04;91.31;98127.63;109480;1252;62821;-73
2024/04/20 10:38:31;;;;;;;1.70;0.80;;;;;;;11.86;89.49;98129.53;109529;1252;59785;-73
2024/04/20 10:41:09;;;;;;;1.00;0.90;;;;;;;11.74;88.70;98133.61;109501;1253;59673;-72
2024/04/20 10:43:35;;;;;;;1.10;1.00;;;;;;;11.74;91.00;98137.55;109512;1253;66838;-73
2024/04/20 10:46:04;;;;;;;3.30;1.10;;;;;;;11.89;90.93;98140.19;109490;1252;60028;-73
2024/04/20 10:48:31;;;;;;;0.30;0.30;;;;;;;12.02;87.65;98142.60;109485;1253;62663;-72
2024/04/20 10:50:59;;;;;;;0.70;0.60;;;;;;;12.10;85.05;98149.05;109523;1253;59827;-73
2024/04/20 10:53:27;;;;;;;0.50;0.50;;;;;;;12.14;84.45;98147.05;109517;1253;60044;-74
2024/04/20 10:55:56;;;;;;;0.90;0.70;;;;;;;12.24;84.19;98148.02;109519;1253;65650;-73
2024/04/20 10:58:23;;;;;;;1.70;1.10;;;;;;;12.21;83.43;98152.39;109526;1252;59841;-73
2024/04/20 11:00:51;;;;;;;0.90;0.80;;;;;;;12.07;82.83;98156.59;109544;1253;63770;-72
2024/04/20 11:03:17;;;;;;;1.80;1.00;;;;;;;11.95;82.38;98158.84;109449;1252;60051;-75
2024/04/20 11:05:54;;;;;;;0.60;0.60;;;;;;;12.00;83.23;98160.40;109417;1252;59850;-77
2024/04/20 11:08:23;;;;;;;1.10;0.90;;;;;;;12.14;83.37;98163.63;109444;1252;66867;-77
2024/04/20 11:10:54;;;;;;;0.80;0.80;;;;;;;12.35;82.88;98161.28;109132;1252;60259;-76
2024/04/20 11:13:21;;;;;;;1.30;1.20;;;;;;;12.39;83.73;98160.62;109445;1251;62714;-77
2024/04/20 11:15:48;;;;;;;1.20;1.10;;;;;;;12.44;84.83;98168.02;109497;1252;60075;-78
2024/04/20 11:18:14;;;;;;;1.70;1.00;;;;;;;12.54;84.79;98177.48;109307;1253;137942;-74
2024/04/20 11:20:41;;;;;;;1.90;1.10;;;;;;;12.62;82.55;98181.38;109451;1253;66811;-75
2024/04/20 11:23:08;;;;;;;1.60;1.50;;;;;;;12.74;83.51;98184.77;109531;1253;67671;-75